Time;durP1;ratioP1;P1;durP2;ratioP2;P2;SDS_P1;SDS_P2;PMS_P1;PMS_P2;Temp;Humidity;BMP_temperature;BMP_pressure;BME280_temperature;BME280_humidity;BME280_pressure;Samples;Min_cycle;Max_cycle;Signal;HPM_P1;HPM_P2
2021/01/16 04:03:03;;;;;;;14.95;5.80;;;;;;;-13.79;100.00;99837.05;1743734;79;21165;-70
2021/01/16 04:05:32;;;;;;;16.02;7.70;;;;;;;-13.79;100.00;99837.05;1741087;80;21152;-65
2021/01/16 04:08:00;;;;;;;20.35;7.65;;;;;;;-13.82;100.00;99844.23;1739136;80;21059;-69
2021/01/16 04:10:29;;;;;;;15.65;6.85;;;;;;;-13.84;100.00;99842.62;1753384;81;21427;-69
2021/01/16 04:13:00;;;;;;;19.87;6.53;;;;;;;-13.85;100.00;99848.50;1742678;81;20960;-68
2021/01/16 04:15:29;;;;;;;18.45;7.40;;;;;;;-13.88;100.00;99858.16;1743942;80;21192;-68
2021/01/16 04:17:57;;;;;;;14.28;5.65;;;;;;;-13.89;100.00;99859.46;1751353;80;20932;-70
2021/01/16 04:20:26;;;;;;;15.72;6.65;;;;;;;-13.91;100.00;99861.17;1752394;80;21135;-67
2021/01/16 04:22:54;;;;;;;13.20;5.75;;;;;;;-13.95;100.00;99859.61;1765657;80;21323;-67
2021/01/16 04:25:23;;;;;;;14.58;6.60;;;;;;;-13.99;100.00;99868.44;1761162;80;21065;-69
2021/01/16 04:27:51;;;;;;;14.45;6.92;;;;;;;-14.01;100.00;99873.94;1734321;81;20924;-64
2021/01/16 04:30:22;;;;;;;16.85;7.42;;;;;;;-14.04;100.00;99871.50;1737082;81;21213;-68
2021/01/16 04:32:52;;;;;;;15.13;5.95;;;;;;;-14.08;100.00;99872.44;1747098;80;21237;-68
2021/01/16 04:35:21;;;;;;;18.17;7.60;;;;;;;-14.09;100.00;99877.47;1757451;80;21206;-64
2021/01/16 04:37:49;;;;;;;14.45;7.65;;;;;;;-14.14;100.00;99877.59;1754682;80;21122;-66
2021/01/16 04:40:17;;;;;;;13.53;5.85;;;;;;;-14.16;100.00;99884.77;1703915;82;21137;-67
2021/01/16 04:42:47;;;;;;;14.70;5.78;;;;;;;-14.19;100.00;99883.15;1752980;80;21015;-68
2021/01/16 04:45:16;;;;;;;13.75;5.42;;;;;;;-14.22;100.00;99886.97;1770301;79;21054;-68
2021/01/16 04:47:46;;;;;;;14.87;6.08;;;;;;;-14.23;100.00;99885.33;1752971;80;21366;-67
2021/01/16 04:50:17;;;;;;;11.10;5.45;;;;;;;-14.24;100.00;99884.52;1745151;81;21266;-69
2021/01/16 04:52:49;;;;;;;18.70;8.03;;;;;;;-14.24;100.00;99887.02;1761187;79;21223;-68
2021/01/16 04:55:17;;;;;;;15.75;6.20;;;;;;;-14.20;100.00;99871.90;1733813;81;21138;-68
2021/01/16 04:57:46;;;;;;;17.35;6.33;;;;;;;-14.16;100.00;99871.81;1756958;80;21121;-67
2021/01/16 05:00:15;;;;;;;19.80;9.20;;;;;;;-14.11;100.00;99877.95;1748943;79;21543;-67
2021/01/16 05:02:43;;;;;;;13.72;6.47;;;;;;;-14.11;100.00;99877.52;1785872;77;21078;-68
2021/01/16 05:05:13;;;;;;;13.38;5.83;;;;;;;-14.12;100.00;99878.39;1808258;77;21133;-67
2021/01/16 05:07:42;;;;;;;14.75;5.92;;;;;;;-14.12;100.00;99889.66;1775837;79;21599;-67
2021/01/16 05:10:11;;;;;;;13.50;6.00;;;;;;;-14.14;100.00;99887.60;1756091;79;21266;-67
2021/01/16 05:13:05;;;;;;;13.48;5.85;;;;;;;-14.14;100.00;99898.88;1774515;80;21386;-66
2021/01/16 05:15:34;;;;;;;15.93;6.87;;;;;;;-14.11;100.00;99895.05;1745565;79;21512;-67
2021/01/16 05:18:16;;;;;;;16.48;7.65;;;;;;;-14.06;100.00;99908.27;1753370;79;21207;-67
2021/01/16 05:20:45;;;;;;;15.58;7.25;;;;;;;-14.01;100.00;99920.27;1758289;79;21013;-67
2021/01/16 05:23:18;;;;;;;15.85;6.40;;;;;;;-13.96;100.00;99933.11;1750975;79;21124;-67
2021/01/16 05:25:52;;;;;;;15.25;6.47;;;;;;;-13.92;100.00;99940.51;1750444;79;21373;-68
2021/01/16 05:28:24;;;;;;;18.07;7.85;;;;;;;-13.85;100.00;99936.18;1748140;79;20907;-68
2021/01/16 05:31:02;;;;;;;23.98;9.78;;;;;;;-13.76;100.00;99938.44;1759678;80;21164;-64
2021/01/16 05:33:34;;;;;;;33.63;16.82;;;;;;;-13.67;100.00;99941.98;1752814;79;22207;-67
2021/01/16 05:36:06;;;;;;;41.70;20.70;;;;;;;-13.60;100.00;99935.94;1751302;79;21092;-68
2021/01/16 05:38:38;;;;;;;33.38;15.60;;;;;;;-13.51;100.00;99938.66;1743476;79;21217;-69
2021/01/16 05:41:12;;;;;;;25.90;12.45;;;;;;;-13.45;100.00;99950.19;1764888;80;21053;-68
2021/01/16 05:43:42;;;;;;;19.98;10.85;;;;;;;-13.41;100.00;99954.27;1768957;80;21006;-68
2021/01/16 05:46:14;;;;;;;18.12;9.30;;;;;;;-13.33;100.00;99958.64;1763065;80;21561;-67
2021/01/16 05:48:42;;;;;;;18.87;8.38;;;;;;;-13.24;100.00;99969.70;1767006;80;21054;-68
2021/01/16 05:51:10;;;;;;;27.10;11.85;;;;;;;-13.19;100.00;99977.06;1768108;80;21605;-67
2021/01/16 05:53:40;;;;;;;20.62;9.45;;;;;;;-13.12;100.00;99974.79;1764891;80;20923;-67
2021/01/16 05:56:11;;;;;;;20.60;9.38;;;;;;;-13.05;100.00;99983.36;1764079;79;20978;-64
2021/01/16 05:58:40;;;;;;;22.65;9.58;;;;;;;-13.03;100.00;99978.30;1759539;80;21234;-67
2021/01/16 06:01:08;;;;;;;19.75;8.95;;;;;;;-13.02;100.00;99975.77;1768086;80;21201;-64
2021/01/16 06:03:38;;;;;;;25.60;10.45;;;;;;;-13.02;100.00;99977.02;1743560;80;21200;-68
2021/01/16 06:06:10;;;;;;;20.52;9.35;;;;;;;-13.03;100.00;99977.04;1741649;82;20908;-62
2021/01/16 06:08:54;;;;;;;23.12;9.43;;;;;;;-13.04;100.00;99976.22;1741769;82;22490;-62
2021/01/16 06:11:24;;;;;;;21.50;10.65;;;;;;;-13.05;100.00;99982.11;1740812;82;21146;-68
2021/01/16 06:13:55;;;;;;;36.13;21.10;;;;;;;-12.99;100.00;99984.91;1742498;82;21170;-64
2021/01/16 06:16:24;;;;;;;;;;;;;;;-12.96;100.00;99977.27;1744575;82;21368;-67
2021/01/16 06:18:57;;;;;;;28.17;15.40;;;;;;;-12.91;100.00;99982.19;1737383;82;20147;-66
2021/01/16 06:21:28;;;;;;;21.82;11.73;;;;;;;-12.84;100.00;99985.73;1721619;82;21124;-61
2021/01/16 06:23:58;;;;;;;14.50;7.12;;;;;;;-12.42;100.00;99975.33;1744440;80;22145;-61
2021/01/16 06:26:28;;;;;;;15.03;8.33;;;;;;;-11.91;100.00;99972.52;1737283;82;21149;-65
2021/01/16 06:29:02;;;;;;;15.15;6.83;;;;;;;-11.67;100.00;99974.20;1743083;82;21500;-66
2021/01/16 06:31:33;;;;;;;18.40;8.95;;;;;;;-11.60;100.00;99972.31;1743582;82;21601;-66
2021/01/16 06:34:05;;;;;;;22.80;10.72;;;;;;;-11.64;100.00;99980.39;1744011;80;21185;-67
2021/01/16 06:36:36;;;;;;;18.48;8.25;;;;;;;-11.67;100.00;99983.00;1739729;82;21694;-66
2021/01/16 06:39:09;;;;;;;20.70;10.50;;;;;;;-11.73;100.00;99980.70;1739646;82;21149;-64
2021/01/16 06:41:39;;;;;;;17.67;9.53;;;;;;;-11.77;100.00;99972.44;1687650;83;21230;-64
2021/01/16 06:44:16;;;;;;;19.42;8.30;;;;;;;-11.74;100.00;99976.55;1692324;83;21040;-64
2021/01/16 06:46:49;;;;;;;20.82;9.45;;;;;;;-11.56;100.00;99984.73;1705728;83;21194;-64
2021/01/16 06:49:26;;;;;;;21.07;10.38;;;;;;;-11.36;100.00;99990.82;1745632;81;21122;-65
2021/01/16 06:52:07;;;;;;;23.10;9.65;;;;;;;-11.23;100.00;99989.52;1744505;81;21121;-66
2021/01/16 06:54:37;;;;;;;20.48;9.90;;;;;;;-10.99;100.00;99988.28;1744355;81;22495;-65
2021/01/16 06:57:14;;;;;;;19.20;9.68;;;;;;;-10.49;100.00;99978.92;1743482;81;21139;-65
2021/01/16 06:59:44;;;;;;;17.55;8.48;;;;;;;-9.69;100.00;99984.20;1747848;81;21045;-66
2021/01/16 07:02:27;;;;;;;15.25;7.37;;;;;;;-8.68;100.00;99977.38;1756304;80;21081;-66
2021/01/16 07:05:22;;;;;;;17.90;9.05;;;;;;;-7.77;100.00;99962.59;1784202;79;21092;-65
2021/01/16 07:07:52;;;;;;;16.57;10.00;;;;;;;-6.97;100.00;99963.69;1754301;80;39848;-67
2021/01/16 07:10:29;;;;;;;15.85;8.40;;;;;;;-6.41;100.00;99956.09;1773765;80;21691;-68
2021/01/16 07:12:53;;;;;;;;;;;;;;;-6.06;100.00;99957.16;1785406;80;21105;-68
2021/01/16 07:15:21;;;;;;;16.45;8.43;;;;;;;-5.92;100.00;99960.54;1773183;80;20142;-69
2021/01/16 07:17:50;;;;;;;15.85;8.10;;;;;;;-5.77;100.00;99966.94;1774597;80;21266;-70
2021/01/16 07:20:18;;;;;;;15.72;8.78;;;;;;;-5.73;100.00;99960.33;1779833;80;21367;-68
2021/01/16 07:22:50;;;;;;;14.85;7.53;;;;;;;-5.64;100.00;99970.44;1731055;80;21096;-69
2021/01/16 07:25:19;;;;;;;15.20;8.38;;;;;;;-5.41;100.00;99975.02;1782870;80;21522;-66
2021/01/16 07:27:49;;;;;;;13.20;7.85;;;;;;;-5.21;100.00;99986.55;1775203;79;21234;-69
2021/01/16 07:30:19;;;;;;;16.48;9.15;;;;;;;-5.13;99.97;99988.65;1774484;80;21114;-71
2021/01/16 07:32:52;;;;;;;15.30;9.25;;;;;;;-4.92;98.48;99989.12;1777806;79;21196;-71
2021/01/16 07:35:22;;;;;;;18.25;9.20;;;;;;;-4.78;95.20;99987.02;1775461;80;21551;-68
2021/01/16 07:37:52;;;;;;;15.28;9.30;;;;;;;-4.71;93.36;99987.01;1780049;80;21224;-69
2021/01/16 07:40:27;;;;;;;20.37;11.50;;;;;;;-4.71;90.17;99996.73;1774505;80;21171;-71
2021/01/16 07:42:58;;;;;;;18.85;11.22;;;;;;;-4.72;89.81;100006.55;1774272;80;21128;-70
2021/01/16 07:45:32;;;;;;;16.52;9.40;;;;;;;-4.73;88.36;100001.56;1778598;80;21198;-69
2021/01/16 07:48:04;;;;;;;21.42;12.50;;;;;;;-4.80;87.45;100007.45;1752873;81;21099;-72
2021/01/16 07:50:36;;;;;;;20.00;10.80;;;;;;;-4.69;91.07;100013.99;1778780;80;21120;-73
2021/01/16 07:53:08;;;;;;;;;;;;;;;-4.47;88.37;100012.68;1775773;80;21335;-73
2021/01/16 07:55:40;;;;;;;;;;;;;;;-4.46;83.69;100013.06;1777222;79;20271;-72
2021/01/16 07:58:36;;;;;;;18.35;10.58;;;;;;;-4.51;86.16;100008.69;1783157;80;21201;-72
2021/01/16 08:01:27;;;;;;;19.25;11.48;;;;;;;-4.40;85.09;100012.67;1755167;80;21141;-73
2021/01/16 08:04:24;;;;;;;;;;;;;;;-4.67;81.09;100010.89;1771155;80;21157;-74
2021/01/16 08:07:13;;;;;;;21.07;12.43;;;;;;;-4.88;83.42;100012.19;1789705;80;20293;-73
2021/01/16 08:09:52;;;;;;;19.92;12.60;;;;;;;-4.92;86.38;100012.81;1756507;81;21456;-72
2021/01/16 08:12:23;;;;;;;21.23;11.57;;;;;;;-4.79;86.45;100026.06;1790830;78;21209;-74
2021/01/16 08:14:51;;;;;;;20.57;10.98;;;;;;;-4.72;86.34;100028.61;1789284;80;21069;-73
2021/01/16 08:17:26;;;;;;;19.82;11.90;;;;;;;-4.58;85.61;100029.05;1757669;81;21141;-74
2021/01/16 08:20:20;;;;;;;18.77;10.50;;;;;;;-4.47;85.41;100020.31;1794789;78;21194;-71
2021/01/16 08:22:51;;;;;;;15.43;9.65;;;;;;;-4.43;82.62;100017.97;1764747;80;21123;-66
2021/01/16 08:25:29;;;;;;;18.57;10.53;;;;;;;-4.44;82.38;100030.31;1728510;81;21623;-78
2021/01/16 08:27:59;;;;;;;17.73;10.15;;;;;;;-4.38;81.78;100021.05;1768275;80;21084;-73
2021/01/16 08:30:30;;;;;;;19.27;10.38;;;;;;;-4.38;80.25;100027.86;1755739;81;20935;-76
2021/01/16 08:33:10;;;;;;;19.73;10.93;;;;;;;-4.50;78.27;100031.97;1763950;80;20918;-73
2021/01/16 08:35:48;;;;;;;17.75;10.95;;;;;;;-4.75;79.80;100032.15;1769497;79;21006;-75
2021/01/16 08:38:21;;;;;;;17.15;10.28;;;;;;;-4.82;82.81;100033.87;1757287;80;21156;-63
2021/01/16 08:41:05;;;;;;;19.55;10.60;;;;;;;-4.71;83.24;100028.52;1771383;79;21206;-74
2021/01/16 08:43:40;;;;;;;17.17;9.50;;;;;;;-4.67;81.90;100015.97;1790166;78;21107;-74
2021/01/16 08:46:17;;;;;;;16.17;9.38;;;;;;;-4.68;81.92;100021.98;1794127;78;21089;-64
2021/01/16 08:49:05;;;;;;;14.55;8.88;;;;;;;-4.71;81.49;100009.90;1792720;78;21661;-71
2021/01/16 08:51:53;;;;;;;16.02;9.43;;;;;;;-4.71;82.33;100005.63;1788289;79;21424;-68
2021/01/16 08:54:22;;;;;;;17.87;11.03;;;;;;;-4.62;83.91;100009.36;1795010;78;21157;-72
2021/01/16 08:57:00;;;;;;;15.55;9.68;;;;;;;-4.43;86.29;100000.16;1769663;80;21543;-73
2021/01/16 08:59:31;;;;;;;17.42;9.23;;;;;;;-4.23;84.06;100005.30;1780006;80;21076;-73
2021/01/16 09:02:10;;;;;;;16.17;9.68;;;;;;;-4.06;81.82;100003.77;1777270;80;21232;-76
2021/01/16 09:04:40;;;;;;;16.17;8.60;;;;;;;-3.96;79.55;99995.11;1761673;79;21448;-75
2021/01/16 09:07:22;;;;;;;12.47;8.28;;;;;;;-3.92;77.89;99983.82;1784235;77;21204;-73
2021/01/16 09:09:56;;;;;;;13.30;8.50;;;;;;;-3.95;72.91;99992.92;1790236;77;21124;-72
2021/01/16 09:12:33;;;;;;;23.65;16.00;;;;;;;-4.16;74.30;99999.73;1784164;77;21169;-71
2021/01/16 09:15:26;;;;;;;17.02;10.53;;;;;;;-4.23;71.55;99995.11;1781654;77;21168;-71
2021/01/16 09:18:06;;;;;;;23.07;15.95;;;;;;;-4.34;72.79;99998.31;1767573;80;21440;-73
2021/01/16 09:20:43;;;;;;;22.90;16.90;;;;;;;-4.38;75.88;99996.88;1764414;79;21784;-71
2021/01/16 09:23:24;;;;;;;14.73;9.33;;;;;;;-4.38;77.28;100003.23;1767390;80;21197;-72
2021/01/16 09:26:06;;;;;;;11.35;6.83;;;;;;;-4.41;76.05;99999.14;1762809;79;21237;-68
2021/01/16 09:28:47;;;;;;;13.38;8.53;;;;;;;-4.61;72.75;100004.63;1719370;82;21633;-73
2021/01/16 09:31:21;;;;;;;14.60;8.08;;;;;;;-4.67;76.74;100009.61;1713991;83;21648;-73
2021/01/16 09:33:55;;;;;;;14.87;7.60;;;;;;;-4.72;75.91;100008.27;1725683;81;21068;-74
2021/01/16 09:36:55;;;;;;;16.62;9.55;;;;;;;-4.83;76.70;100010.17;1758515;80;21145;-76
2021/01/16 09:39:33;;;;;;;17.23;8.70;;;;;;;-4.99;78.62;100021.70;1737619;80;21614;-75
2021/01/16 09:42:06;;;;;;;15.93;8.85;;;;;;;-5.10;79.83;100024.05;1758735;80;21193;-74
2021/01/16 09:44:52;;;;;;;11.95;7.67;;;;;;;-5.05;80.60;100020.78;1763850;80;22227;-76
2021/01/16 09:47:32;;;;;;;13.20;8.10;;;;;;;-5.05;81.17;100023.78;1777072;80;21005;-77
2021/01/16 09:50:17;;;;;;;16.27;9.08;;;;;;;-5.12;80.85;100027.58;1773553;79;21097;-76
2021/01/16 09:52:51;;;;;;;15.28;8.45;;;;;;;-5.15;82.12;100025.59;1783138;77;21771;-75
2021/01/16 09:55:27;;;;;;;14.13;8.15;;;;;;;-5.16;81.28;100029.02;1784922;77;20934;-75
2021/01/16 09:57:55;;;;;;;15.10;7.35;;;;;;;-5.23;80.12;100025.22;1801626;77;21340;-70
2021/01/16 10:00:29;;;;;;;12.58;7.28;;;;;;;-5.31;80.57;100026.09;1799386;77;21223;-73
2021/01/16 10:03:06;;;;;;;16.82;8.05;;;;;;;-5.41;83.76;100031.34;1764155;80;21530;-75
2021/01/16 10:05:40;;;;;;;13.72;8.18;;;;;;;-5.39;85.39;100029.52;1761573;80;21583;-71
2021/01/16 10:08:09;;;;;;;15.05;7.25;;;;;;;-5.42;83.38;100025.45;1757763;80;21208;-74
2021/01/16 10:10:46;;;;;;;18.75;7.40;;;;;;;-5.54;81.71;100029.12;1770123;80;21435;-73
2021/01/16 10:13:34;;;;;;;14.63;7.65;;;;;;;-5.64;83.62;100025.84;1774356;80;21031;-74
2021/01/16 10:16:11;;;;;;;14.73;8.03;;;;;;;-5.70;84.65;100024.90;1755297;80;21192;-76
2021/01/16 10:18:41;;;;;;;14.87;7.65;;;;;;;-5.79;84.46;100021.61;1761483;80;21078;-75
2021/01/16 10:21:12;;;;;;;19.55;10.80;;;;;;;-5.77;87.25;100017.25;1772721;80;21556;-70
2021/01/16 10:23:43;;;;;;;12.35;8.18;;;;;;;-5.69;84.09;100015.10;1764151;80;21354;-76
2021/01/16 10:26:14;;;;;;;17.48;8.28;;;;;;;-5.71;84.93;100012.30;1779814;80;21197;-77
2021/01/16 10:29:08;;;;;;;12.37;6.78;;;;;;;-5.74;86.53;100012.01;1776645;80;21074;-74
2021/01/16 10:31:38;;;;;;;15.65;7.35;;;;;;;-5.80;84.22;100002.64;1764012;80;21566;-75
2021/01/16 10:36:48;;;;;;;12.83;6.37;;;;;;;-5.91;85.12;100017.19;1828367;77;22691;-74
2021/01/16 10:39:16;;;;;;;18.35;7.80;;;;;;;-6.01;86.50;100007.22;1798283;79;21553;-70
2021/01/16 10:41:46;;;;;;;22.05;10.90;;;;;;;-6.05;87.48;100004.48;1797967;79;21544;-71
2021/01/16 10:44:17;;;;;;;14.20;7.12;;;;;;;-5.93;90.60;100008.88;1799513;79;20979;-70
2021/01/16 10:46:51;;;;;;;;;;;;;;;-5.81;90.33;100001.83;1796010;79;21553;-72
2021/01/16 10:49:26;;;;;;;15.38;7.28;;;;;;;-5.79;88.94;100002.58;1794964;79;20220;-71
2021/01/16 10:51:59;;;;;;;12.98;6.47;;;;;;;-5.93;87.20;100009.70;1790579;79;20919;-71
2021/01/16 10:54:27;;;;;;;16.10;7.22;;;;;;;-5.99;87.43;100008.75;1799137;78;22545;-71
2021/01/16 10:57:05;;;;;;;15.75;7.25;;;;;;;-6.07;89.50;100011.35;1732530;80;21512;-72
2021/01/16 10:59:38;;;;;;;12.85;7.05;;;;;;;-6.01;91.59;100012.30;1765740;80;20940;-74
2021/01/16 11:02:12;;;;;;;13.25;6.62;;;;;;;-5.92;92.08;100013.05;1763853;80;22341;-75
2021/01/16 11:04:48;;;;;;;14.87;9.25;;;;;;;-5.86;92.51;100017.77;1759085;80;21098;-72
2021/01/16 11:07:30;;;;;;;14.00;7.78;;;;;;;-5.80;92.59;100022.49;1766018;80;21251;-71
2021/01/16 11:10:12;;;;;;;13.95;7.67;;;;;;;-5.74;93.11;100022.63;1758578;80;25232;-74
2021/01/16 11:12:41;;;;;;;18.45;8.48;;;;;;;-5.75;88.81;100021.80;1768139;80;21129;-71
2021/01/16 11:15:31;;;;;;;19.52;9.30;;;;;;;-5.76;90.23;100015.52;1732099;81;21575;-70
2021/01/16 11:18:01;;;;;;;25.90;12.05;;;;;;;-5.82;90.37;100019.23;1737581;81;21085;-72
2021/01/16 11:20:33;;;;;;;35.92;16.87;;;;;;;-5.78;92.82;100033.39;1732763;81;21262;-74
2021/01/16 11:23:08;;;;;;;;;;;;;;;-5.72;92.46;100034.34;1753207;80;21050;-75
2021/01/16 11:25:44;;;;;;;24.15;12.20;;;;;;;-5.75;90.69;100022.27;1742639;81;20149;-76
2021/01/16 11:28:23;;;;;;;28.30;14.68;;;;;;;-5.87;90.61;100035.18;1767137;80;21554;-76
2021/01/16 11:31:06;;;;;;;23.22;15.30;;;;;;;-5.97;92.49;100031.08;1761220;80;22478;-79
2021/01/16 11:33:34;;;;;;;23.25;13.90;;;;;;;-6.01;91.99;100029.61;1761311;80;21394;-82
2021/01/16 11:36:08;;;;;;;15.18;9.08;;;;;;;-6.08;93.18;100023.23;1761233;80;21616;-71
2021/01/16 11:38:43;;;;;;;19.48;8.73;;;;;;;-6.19;92.23;100028.05;1761159;80;22469;-80
2021/01/16 11:41:12;;;;;;;18.27;10.43;;;;;;;-6.40;93.51;100019.43;1764004;80;21128;-79
2021/01/16 11:43:41;;;;;;;21.10;11.33;;;;;;;-6.48;95.69;100025.78;1771916;80;21006;-80
2021/01/16 11:46:13;;;;;;;16.62;9.75;;;;;;;-6.54;95.36;100024.40;1737070;80;21381;-82
2021/01/16 11:48:42;;;;;;;20.37;11.83;;;;;;;-6.68;96.35;100027.64;1793264;79;21574;-81
2021/01/16 11:51:16;;;;;;;19.80;10.55;;;;;;;-6.76;98.74;100027.22;1795049;79;20959;-76
2021/01/16 11:53:48;;;;;;;22.67;12.73;;;;;;;-6.77;100.00;100033.20;1796403;78;20939;-69
2021/01/16 11:56:20;;;;;;;;;;;;;;;-6.87;99.39;100029.48;1802175;78;21624;-70
2021/01/16 11:58:51;;;;;;;18.85;10.82;;;;;;;-6.98;100.00;100029.20;1796060;79;20801;-77
2021/01/16 12:01:19;;;;;;;19.05;11.28;;;;;;;-7.08;100.00;100036.87;1797112;79;21279;-78
2021/01/16 12:03:48;;;;;;;26.85;14.28;;;;;;;-7.24;100.00;100040.17;1796427;79;20975;-68
2021/01/16 12:06:18;;;;;;;28.17;15.30;;;;;;;-7.32;100.00;100046.52;1801004;78;21049;-75
2021/01/16 12:08:47;;;;;;;22.75;13.32;;;;;;;-7.33;100.00;100053.75;1796411;79;21173;-71
2021/01/16 12:11:16;;;;;;;19.80;9.75;;;;;;;-7.33;100.00;100055.83;1794819;78;22401;-75
2021/01/16 12:13:50;;;;;;;24.32;13.65;;;;;;;-7.44;100.00;100047.48;1795653;79;20924;-72
2021/01/16 12:16:18;;;;;;;24.65;13.95;;;;;;;-7.44;100.00;100047.48;1794916;79;21216;-70
2021/01/16 12:18:47;;;;;;;25.95;15.00;;;;;;;-7.49;100.00;100057.02;1800670;79;21171;-72
2021/01/16 12:21:16;;;;;;;21.82;12.03;;;;;;;-7.51;100.00;100059.23;1789861;79;21579;-73
2021/01/16 12:23:46;;;;;;;15.88;8.80;;;;;;;-7.56;100.00;100068.33;1798925;78;21238;-71
2021/01/16 12:26:16;;;;;;;14.55;8.33;;;;;;;-7.60;100.00;100073.16;1745587;81;21047;-71
2021/01/16 12:28:49;;;;;;;21.00;11.35;;;;;;;-7.63;100.00;100071.58;1758996;80;21111;-72
2021/01/16 12:31:25;;;;;;;27.22;16.00;;;;;;;-7.65;100.00;100063.67;1807241;79;21113;-67
2021/01/16 12:33:53;;;;;;;70.90;36.83;;;;;;;-7.66;100.00;100067.92;1796359;79;21244;-71
2021/01/16 12:36:22;;;;;;;41.00;24.43;;;;;;;-7.73;100.00;100075.42;1736766;80;21228;-70
2021/01/16 12:38:52;;;;;;;37.28;21.37;;;;;;;-7.79;100.00;100066.88;1750904;81;20995;-69
2021/01/16 12:41:22;;;;;;;43.20;24.50;;;;;;;-7.82;100.00;100077.58;1741073;81;21003;-69
2021/01/16 12:43:51;;;;;;;52.78;33.58;;;;;;;-7.89;100.00;100070.27;1748125;81;21252;-68
2021/01/16 12:46:21;;;;;;;53.78;29.10;;;;;;;-7.92;100.00;100073.38;1726252;81;21066;-69
2021/01/16 12:48:51;;;;;;;51.18;30.68;;;;;;;-7.96;100.00;100076.94;1748432;81;22150;-69
2021/01/16 12:51:19;;;;;;;47.40;24.57;;;;;;;-8.00;100.00;100080.50;1751118;81;21038;-68
2021/01/16 12:53:51;;;;;;;87.12;44.13;;;;;;;-8.04;100.00;100085.32;1742021;81;21754;-68
2021/01/16 12:56:21;;;;;;;54.10;31.02;;;;;;;-8.09;100.00;100093.94;1788943;79;21918;-69
2021/01/16 12:58:50;;;;;;;63.48;36.10;;;;;;;-8.16;100.00;100097.63;1791541;79;21619;-69
2021/01/16 13:01:18;;;;;;;28.38;15.48;;;;;;;-8.23;100.00;100103.84;1783067;79;21372;-66
2021/01/16 13:03:50;;;;;;;27.13;14.98;;;;;;;-8.33;100.00;100102.63;1790621;79;21105;-68
2021/01/16 13:06:18;;;;;;;21.15;13.25;;;;;;;-8.39;100.00;100104.17;1789752;79;21576;-70
2021/01/16 13:08:46;;;;;;;50.43;24.87;;;;;;;-8.40;100.00;100111.39;1785643;79;21118;-72
2021/01/16 13:11:16;;;;;;;77.22;32.40;;;;;;;-8.44;100.00;100106.91;1753139;80;20971;-71
2021/01/16 13:13:56;;;;;;;301.75;120.15;;;;;;;-8.48;100.00;100112.98;1710477;81;22488;-68
2021/01/16 13:16:28;;;;;;;153.23;65.72;;;;;;;-8.53;100.00;100114.05;1745402;81;20979;-71
2021/01/16 13:19:00;;;;;;;65.97;32.95;;;;;;;-8.59;100.00;100118.49;1747868;80;20940;-70
2021/01/16 13:21:30;;;;;;;39.95;19.35;;;;;;;-8.64;100.00;100114.05;1735510;81;21206;-69
2021/01/16 13:23:59;;;;;;;25.17;12.33;;;;;;;-8.68;100.00;100107.48;1763861;80;21624;-71
2021/01/16 13:26:27;;;;;;;39.30;18.70;;;;;;;-8.72;100.00;100102.64;1783064;79;21213;-68
2021/01/16 13:28:56;;;;;;;45.45;20.48;;;;;;;-8.78;100.00;100102.47;1788532;79;21019;-69
2021/01/16 13:31:25;;;;;;;43.25;21.17;;;;;;;-8.81;100.00;100107.64;1780939;79;20991;-69
2021/01/16 13:33:55;;;;;;;27.65;13.70;;;;;;;-8.88;100.00;100113.83;1784020;79;21126;-72
2021/01/16 13:36:28;;;;;;;29.65;14.83;;;;;;;-8.97;100.00;100112.52;1786667;79;21109;-68
2021/01/16 13:38:57;;;;;;;27.60;14.20;;;;;;;-9.09;100.00;100113.84;1715884;82;21232;-70
2021/01/16 13:41:26;;;;;;;25.72;13.55;;;;;;;-9.20;100.00;100116.41;1740199;82;21073;-67
2021/01/16 13:43:55;;;;;;;98.87;47.65;;;;;;;-9.31;100.00;100114.31;1775100;79;20931;-73
2021/01/16 13:46:38;;;;;;;63.45;32.40;;;;;;;-9.43;100.00;100118.14;1777854;79;21062;-65
2021/01/16 13:49:07;;;;;;;27.87;14.90;;;;;;;-9.56;100.00;100122.83;1784511;79;21144;-69
2021/01/16 13:51:36;;;;;;;22.82;11.93;;;;;;;-9.70;100.00;100121.70;1772799;79;21441;-67
2021/01/16 13:54:06;;;;;;;22.93;12.47;;;;;;;-9.83;100.00;100118.83;1772094;79;21064;-67
2021/01/16 13:56:50;;;;;;;52.20;23.85;;;;;;;-9.95;100.00;100115.52;1776343;79;21030;-67
2021/01/16 13:59:29;;;;;;;53.98;25.45;;;;;;;-10.07;100.00;100128.95;1770537;79;21576;-65
2021/01/16 14:02:00;;;;;;;34.95;17.40;;;;;;;-10.17;100.00;100135.19;1776415;79;21066;-68
2021/01/16 14:04:31;;;;;;;36.90;18.82;;;;;;;-10.28;100.00;100134.78;1704668;82;21161;-68
2021/01/16 14:07:01;;;;;;;31.77;14.78;;;;;;;-10.36;100.00;100132.98;1749380;79;21491;-67
2021/01/16 14:09:33;;;;;;;30.10;15.53;;;;;;;-10.44;100.00;100129.47;1783803;79;21269;-62
2021/01/16 14:12:05;;;;;;;29.85;16.17;;;;;;;-10.50;100.00;100126.33;1783886;79;21082;-65
2021/01/16 14:14:35;;;;;;;37.50;19.73;;;;;;;-10.60;100.00;100121.63;1779242;79;21003;-67
2021/01/16 14:17:22;;;;;;;31.70;17.20;;;;;;;-10.66;100.00;100124.34;1713242;82;21199;-64
2021/01/16 14:20:05;;;;;;;37.63;19.48;;;;;;;-10.75;100.00;100119.63;1789835;79;21478;-64
2021/01/16 14:22:45;;;;;;;52.93;24.55;;;;;;;-10.83;100.00;100122.84;1777223;79;21153;-65
2021/01/16 14:25:34;;;;;;;50.60;24.35;;;;;;;-10.93;100.00;100123.58;1715245;82;21132;-64
2021/01/16 14:28:02;;;;;;;46.85;23.70;;;;;;;-11.00;100.00;100115.02;1777470;79;21021;-66
2021/01/16 14:30:38;;;;;;;43.70;22.67;;;;;;;-11.09;100.00;100110.67;1787090;79;21346;-63
2021/01/16 14:33:11;;;;;;;47.80;21.12;;;;;;;-11.17;100.00;100107.59;1788643;79;21220;-65
2021/01/16 14:35:40;;;;;;;47.05;20.82;;;;;;;-11.23;100.00;100104.44;1782729;79;20932;-66
2021/01/16 14:38:11;;;;;;;44.77;20.62;;;;;;;-11.30;100.00;100106.32;1786470;79;21594;-66
2021/01/16 14:40:43;;;;;;;53.73;22.93;;;;;;;-11.35;100.00;100112.77;1743173;80;21154;-65
2021/01/16 14:43:15;;;;;;;78.57;35.95;;;;;;;-11.39;100.00;100109.96;1737982;80;21499;-66
2021/01/16 14:45:55;;;;;;;46.90;21.73;;;;;;;-11.44;100.00;100105.93;1734943;80;21233;-65
2021/01/16 14:48:24;;;;;;;43.00;20.00;;;;;;;-11.48;100.00;100108.16;1726872;81;21143;-64
2021/01/16 14:51:02;;;;;;;46.80;21.50;;;;;;;-11.53;100.00;100112.07;1783343;79;21225;-65
2021/01/16 14:53:34;;;;;;;44.85;19.87;;;;;;;-11.56;100.00;100110.47;1785577;79;21555;-64
2021/01/16 14:56:10;;;;;;;49.38;21.05;;;;;;;-11.60;100.00;100111.87;1787078;79;21341;-63
2021/01/16 14:58:41;;;;;;;40.88;17.07;;;;;;;-11.63;100.00;100111.96;1790915;79;21551;-65
2021/01/16 15:01:09;;;;;;;33.50;16.37;;;;;;;-11.67;100.00;100115.44;1723240;80;21204;-65
2021/01/16 15:03:40;;;;;;;44.05;19.98;;;;;;;-11.71;100.00;100113.45;1749540;80;21082;-65
2021/01/16 15:06:08;;;;;;;40.00;19.37;;;;;;;-11.71;100.00;100118.47;1743273;80;21181;-64
2021/01/16 15:08:50;;;;;;;39.85;18.10;;;;;;;-11.72;100.00;100121.87;1752977;80;21408;-64
2021/01/16 15:11:18;;;;;;;35.13;18.62;;;;;;;-11.73;100.00;100121.48;1751865;80;21003;-65
2021/01/16 15:13:49;;;;;;;47.33;21.52;;;;;;;-11.72;100.00;100129.41;1747414;80;21568;-66
2021/01/16 15:16:18;;;;;;;50.88;27.45;;;;;;;-11.69;100.00;100123.48;1787868;79;20971;-66
2021/01/16 15:18:47;;;;;;;59.40;31.25;;;;;;;-11.68;100.00;100125.94;1785288;79;21061;-65
2021/01/16 15:21:15;;;;;;;54.35;30.52;;;;;;;-11.68;100.00;100124.67;1763447;79;21388;-65
2021/01/16 15:23:44;;;;;;;48.50;25.80;;;;;;;-11.65;100.00;100122.08;1788026;79;21193;-63
2021/01/16 15:26:12;;;;;;;39.75;20.68;;;;;;;-11.60;100.00;100118.16;1794034;79;22326;-65
2021/01/16 15:28:40;;;;;;;46.75;23.77;;;;;;;-11.55;100.00;100113.39;1787687;79;21603;-65
2021/01/16 15:31:10;;;;;;;61.28;34.43;;;;;;;-11.50;100.00;100119.53;1791015;79;21560;-64
2021/01/16 15:33:45;;;;;;;45.00;25.62;;;;;;;-11.48;100.00;100111.92;1788936;79;22107;-63
2021/01/16 15:36:14;;;;;;;36.38;19.02;;;;;;;-11.48;100.00;100109.41;1740141;80;21250;-67
2021/01/16 15:38:42;;;;;;;40.52;22.37;;;;;;;-11.50;100.00;100108.22;1746499;80;21561;-64
2021/01/16 15:41:11;;;;;;;53.33;27.48;;;;;;;-11.52;100.00;100107.42;1754080;81;21142;-65